Akron Canton Regional Airport
KCAK : now visible

Airfield :











YOU CAN JOIN US ON...

 
LOGIN :

Register | Disclaimer

   EN    FR    IT 

 









Legend :    VFR   Marginal VFR   IFR   Intensive IFR   Very Intensive IFR
Visi :
Ceiling :
>= 8 km
>= 3000ft
5 to 8 km
1000 to 3000 ft
1500m to 5 km
500 to 1000 ft
800 to 1500m
200 to 500 ft
< 800m
< 200 ft
Symbols :   Thunderstorms  Fog  Heavy snow  Heavy precipitations  Wind > 20 kt






- Airport Elevation : 1228 ft
- IATA code : CAK


KCAK - Akron Canton Regional

CURRENT METAR :
  • 280351Z 26012G21KT 10SM FEW030 16/11 A2980 RMK AO2 SLP085 T01610106

EXPIRED METARs :
  • 280251Z 27008KT 10SM FEW032 BKN047 16/11 A2980 RMK AO2 SLP086 T01610111 51015
  • 280151Z 26011G20KT 10SM SCT028 OVC048 17/12 A2979 RMK AO2 SLP082 T01670117
  • 280051Z 25008G17KT 10SM BKN031 OVC046 17/12 A2977 RMK AO2 SLP077 T01720117
  • 272351Z 27013G27KT 10SM OVC043 17/12 A2976 RMK AO2 PK WND 28028/2305 SLP072 T01720117 10244 20172 51038

TAF KCAK
Valid from the 28 at 00:00 until the 29 at 00:00 UTC


272346Z 2800/2824 26016G24KT P6SM SCT025 OVC040
FM280200 26011KT P6SM BKN040
FM281000 27008KT P6SM OVC020
FM281500 29012G20KT P6SM VCSH BKN035
FM281900 30010G18KT P6SM -SHRA VCTS BKN035CB
FM282300 32008KT P6SM VCSH BKN050
KZOB FIR / North America



MET'MAP, your aeronautical weather chart ! - Copyright ORBIFLY December 2007 - Disclaimer

ORBIFLY MET'MAP TEAM :

Programming & Development : Alexandra Zaïnal
Original concept : Baudouin d'Aumeries
Technical & hardware support : Manuel Goepfert
Assistance : Marc-Olivier Méhu




SOURCES & CREDITS :

   NOAA       Earth
Advisory